Airfield :
LOGIN :

Register | Disclaimer

   EN    FR    IT 

 










Legend :    VFR   Marginal VFR   IFR   Intensive IFR   Very Intensive IFR
Visi :
Ceiling :
>= 8 km
>= 3000ft
5 to 8 km
1000 to 3000 ft
1500m to 5 km
500 to 1000 ft
800 to 1500m
200 to 500 ft
< 800m
< 200 ft
Symbols :   Thunderstorms  Fog  Heavy snow  Heavy precipitations  Wind > 20 kt
SIGMETs :     Misc.  Thunderstorms  Icing  Turbulence  Mountain Waves  Volcanic Ashes







- Airport Elevation : 458 ft
- Download approach charts


LFSI - St-Dizier

CURRENT METAR :
  • 211200Z AUTO 32010KT 290V350 9999 FEW023 OVC033 20/13 Q1021

EXPIRED METARs :
  • 211130Z AUTO 34008KT 310V010 9999 BKN022 BKN029 OVC034 19/14 Q1021
  • 211100Z AUTO 34010KT 9999 BKN019 OVC032 19/14 Q1021
  • 211030Z AUTO 35013KT 9999 FEW013 BKN019 BKN041 20/15 Q1021
  • 211000Z AUTO 34013KT 9999 BKN014 BKN020 OVC034 18/15 Q1021
  • 210930Z AUTO 34013KT 9999 SCT016 BKN026 OVC046 19/15 Q1020

TAF TAF LFSI
Valid from the 21 at 09:00 until the 22 at 09:00 UTC


210800Z 2109/2209 33006KT 9999 BKN035
No reported NOTAMs for that airfield.



MET'MAP, your aeronautical weather chart ! - Copyright ORBIFLY December 2007 - Disclaimer

ORBIFLY MET'MAP TEAM :

Programming & Development : Alexandra Zaïnal
Concept & Development : Baudouin d'Aumeries
Co-Development & Prog : Marc-Olivier Méhu
Technical & hardware support : Manuel Goepfert

Contact : metmap@orbifly.com




SOURCES & CREDITS :

   NOAA